Time,TemperatureF,DewpointF,PressureIn,WindDirection,WindDirectionDegrees,WindSpeedMPH,WindSpeedGustMPH,Humidity,HourlyPrecipIn,Conditions,Clouds,dailyrainin,SoftwareType,DateUTC
2013-06-18 20:58:00,71.5,69.4,29.82,NNW,340,0.0,0.0,93,0.00,RA,,0.67,WeatherDisplay:10.37,2013-06-19 00:58:00,
2013-06-18 20:59:00,71.5,69.4,29.82,NNW,340,0.0,0.0,93,0.00,RA,,0.67,WeatherDisplay:10.37,2013-06-19 00:59:00,
2013-06-18 21:04:00,71.3,69.2,29.83,NNW,340,0.0,0.0,93,0.00,RA,,0.67,WeatherDisplay:10.37,2013-06-19 01:04:00,
2013-06-18 21:09:00,71.2,68.8,29.83,NNW,340,0.0,0.0,92,0.00,CLR,,0.67,WeatherDisplay:10.37,2013-06-19 01:09:00,
2013-06-18 21:14:00,71.1,69.0,29.83,NNW,340,0.0,0.0,93,0.00,CLR,,0.67,WeatherDisplay:10.37,2013-06-19 01:14:00,
2013-06-18 21:19:00,70.9,68.8,29.83,NNW,340,0.0,0.0,93,0.00,CLR,,0.67,WeatherDisplay:10.37,2013-06-19 01:19:00,
2013-06-18 21:24:00,70.8,68.7,29.83,NNW,340,0.0,0.0,93,0.00,CLR,,0.67,WeatherDisplay:10.37,2013-06-19 01:24:00,
2013-06-18 21:29:00,70.7,68.6,29.83,NNW,340,0.0,0.0,93,0.00,CLR,,0.67,WeatherDisplay:10.37,2013-06-19 01:29:00,
2013-06-18 21:34:00,70.6,68.5,29.84,NNW,340,0.0,0.0,93,0.00,RA,,0.67,WeatherDisplay:10.37,2013-06-19 01:34:00,
2013-06-18 21:39:00,70.6,68.5,29.83,NNW,340,0.0,0.0,93,0.00,CLR,,0.67,WeatherDisplay:10.37,2013-06-19 01:39:00,
2013-06-18 21:44:00,70.4,68.3,29.84,NNW,340,0.0,0.0,93,0.00,CLR,,0.67,WeatherDisplay:10.37,2013-06-19 01:44:00,
2013-06-18 21:49:00,70.4,68.3,29.84,NNW,340,0.0,0.0,93,0.00,CLR,,0.67,WeatherDisplay:10.37,2013-06-19 01:49:00,
2013-06-18 21:54:00,70.4,68.3,29.84,NNW,340,0.0,0.0,93,0.00,CLR,,0.67,WeatherDisplay:10.37,2013-06-19 01:54:00,
2013-06-18 21:59:00,70.4,68.3,29.84,NNW,340,0.0,0.0,93,0.00,CLR,,0.67,WeatherDisplay:10.37,2013-06-19 01:59:00,
2013-06-18 22:04:00,70.0,68.2,29.86,NNW,340,0.0,0.0,94,0.00,CLR,,0.67,WeatherDisplay:10.37,2013-06-19 02:04:00,
2013-06-18 22:09:00,69.9,68.1,29.86,NNW,340,0.0,0.0,94,0.00,CLR,,0.67,WeatherDisplay:10.37,2013-06-19 02:09:00,
2013-06-18 22:14:00,69.8,68.0,29.86,NNW,340,0.0,0.0,94,0.00,CLR,,0.67,WeatherDisplay:10.37,2013-06-19 02:14:00,
2013-06-18 22:19:00,69.8,68.0,29.87,NNW,340,0.0,0.0,94,0.00,CLR,,0.67,WeatherDisplay:10.37,2013-06-19 02:19:00,
2013-06-18 22:24:00,70.4,68.3,29.84,NNW,340,0.0,0.0,93,0.00,CLR,,0.67,WeatherDisplay:10.37,2013-06-19 02:24:00,
2013-06-18 22:29:00,70.4,68.3,29.84,NNW,340,0.0,0.0,93,0.00,CLR,,0.67,WeatherDisplay:10.37,2013-06-19 02:29:00,
2013-06-18 22:34:00,70.4,68.3,29.84,NNW,340,0.0,0.0,93,0.00,CLR,,0.67,WeatherDisplay:10.37,2013-06-19 02:34:00,
2013-06-18 22:39:00,69.5,68.0,29.88,NNE,22,2.0,2.0,95,0.00,CLR,,0.67,WeatherDisplay:10.37,2013-06-19 02:39:00,
2013-06-18 22:44:00,70.4,68.3,29.84,NNW,340,0.0,0.0,93,0.00,CLR,,0.67,WeatherDisplay:10.37,2013-06-19 02:44:00,
2013-06-18 22:49:00,70.4,68.3,29.84,NNW,340,0.0,0.0,93,0.00,CLR,,0.67,WeatherDisplay:10.37,2013-06-19 02:49:00,
2013-06-18 22:54:00,69.7,68.2,29.88,NE,44,0.0,0.0,95,0.00,CLR,,0.67,WeatherDisplay:10.37,2013-06-19 02:54:00,
2013-06-18 22:59:00,70.4,68.3,29.84,NNW,340,0.0,0.0,93,0.00,CLR,,0.67,WeatherDisplay:10.37,2013-06-19 02:59:00,
2013-06-18 23:04:00,70.4,68.3,29.84,NNW,340,0.0,0.0,93,0.00,CLR,,0.67,WeatherDisplay:10.37,2013-06-19 03:04:00,
2013-06-18 23:09:00,70.4,68.3,29.84,NNW,340,0.0,0.0,93,0.00,CLR,,0.67,WeatherDisplay:10.37,2013-06-19 03:09:00,
2013-06-18 23:14:00,69.8,68.3,29.89,NE,44,0.0,0.0,95,0.00,CLR,,0.67,WeatherDisplay:10.37,2013-06-19 03:14:00,
2013-06-18 23:19:00,70.4,68.3,29.84,NNW,340,0.0,0.0,93,0.00,CLR,,0.67,WeatherDisplay:10.37,2013-06-19 03:19:00,
2013-06-18 23:24:00,70.4,68.3,29.84,NNW,340,0.0,0.0,93,0.00,CLR,,0.67,WeatherDisplay:10.37,2013-06-19 03:24:00,
2013-06-18 23:29:00,69.7,68.5,29.89,NE,44,0.0,0.0,96,0.00,CLR,,0.67,WeatherDisplay:10.37,2013-06-19 03:29:00,
2013-06-18 23:34:00,69.7,68.5,29.89,NE,44,0.0,0.0,96,0.00,CLR,,0.67,WeatherDisplay:10.37,2013-06-19 03:34:00,
2013-06-18 23:39:00,70.4,68.3,29.84,NNW,340,0.0,0.0,93,0.00,CLR,,0.67,WeatherDisplay:10.37,2013-06-19 03:39:00,
2013-06-18 23:44:00,70.4,68.3,29.84,NNW,340,0.0,0.0,93,0.00,CLR,,0.67,WeatherDisplay:10.37,2013-06-19 03:44:00,
2013-06-18 23:49:00,69.6,68.4,29.89,NE,44,0.0,0.0,96,0.00,CLR,,0.67,WeatherDisplay:10.37,2013-06-19 03:49:00,
2013-06-18 23:54:00,70.4,68.3,29.84,NNW,340,0.0,0.0,93,0.00,CLR,,0.67,WeatherDisplay:10.37,2013-06-19 03:54:00,
2013-06-18 23:59:00,70.4,68.3,29.84,NNW,340,0.0,0.0,93,0.00,CLR,,0.67,WeatherDisplay:10.37,2013-06-19 03:59:00,